createdAt,value
2023-03-16T00:00:47.723Z,102107.47
2023-03-16T00:02:49.199Z,102102.28
2023-03-16T00:04:50.770Z,102112.66
2023-03-16T00:06:52.327Z,102118.75
2023-03-16T00:08:58.860Z,102114.44
2023-03-16T00:11:00.390Z,102111.84
2023-03-16T00:13:02.708Z,102116.16
2023-03-16T00:15:04.627Z,102109.19
2023-03-16T00:17:06.597Z,102103.94
2023-03-16T00:19:08.050Z,102110.00
2023-03-16T00:21:09.985Z,102115.19
2023-03-16T00:23:11.934Z,102108.25
2023-03-16T00:25:14.655Z,102104.78
2023-03-16T00:27:17.336Z,102104.78
2023-03-16T00:29:18.890Z,102104.78
2023-03-16T00:31:20.636Z,102109.06
2023-03-16T00:33:23.052Z,102101.28
2023-03-16T00:35:24.715Z,102100.41
2023-03-16T00:37:27.819Z,102103.00
2023-03-16T00:39:29.299Z,102106.44
2023-03-16T00:41:31.114Z,102106.38
2023-03-16T00:43:40.831Z,102104.59
2023-03-16T00:45:44.783Z,102109.78
2023-03-16T00:47:46.375Z,102106.25
2023-03-16T00:49:47.830Z,102107.97
2023-03-16T00:51:49.351Z,102098.31
2023-03-16T00:53:50.918Z,102104.31
2023-03-16T00:55:53.537Z,102101.63
2023-03-16T00:57:55.079Z,102099.03
2023-03-16T00:59:56.515Z,102098.97
2023-03-16T01:01:57.986Z,102093.72
2023-03-16T01:04:02.430Z,102089.38
2023-03-16T01:06:10.350Z,102087.66
2023-03-16T01:08:11.946Z,102086.72
2023-03-16T01:10:13.691Z,102092.72
2023-03-16T01:12:19.167Z,102094.44
2023-03-16T01:14:22.181Z,102092.66
2023-03-16T01:16:23.721Z,102084.84
2023-03-16T01:18:26.037Z,102089.97
2023-03-16T01:20:27.683Z,102088.13
2023-03-16T01:22:29.278Z,102089.78
2023-03-16T01:24:31.396Z,102088.84
2023-03-16T01:26:32.883Z,102082.72
2023-03-16T01:28:34.720Z,102083.53
2023-03-16T01:30:36.282Z,102082.63
2023-03-16T01:32:38.450Z,102081.69
2023-03-16T01:34:39.990Z,102075.63
2023-03-16T01:36:46.851Z,102073.84
2023-03-16T01:38:48.421Z,102078.09
2023-03-16T01:40:51.807Z,102076.34
2023-03-16T01:43:02.784Z,102064.25
2023-03-16T01:45:06.300Z,102066.78
2023-03-16T01:47:07.939Z,102063.25
2023-03-16T01:49:16.831Z,102057.97
2023-03-16T01:51:27.848Z,102049.25
2023-03-16T01:53:29.376Z,102050.88
2023-03-16T01:55:31.360Z,102054.31
2023-03-16T01:57:37.066Z,102055.13
2023-03-16T01:59:41.414Z,102049.06
2023-03-16T02:01:43.842Z,102059.38
2023-03-16T02:03:46.029Z,102049.00
2023-03-16T02:05:56.648Z,102049.00
2023-03-16T02:07:58.620Z,102046.41
2023-03-16T02:10:03.049Z,102042.06
2023-03-16T02:12:05.209Z,102037.69
2023-03-16T02:14:10.966Z,102037.66
2023-03-16T02:16:19.296Z,102028.94
2023-03-16T02:18:23.058Z,102021.09
2023-03-16T02:20:34.455Z,102016.75
2023-03-16T02:22:39.568Z,102015.78
2023-03-16T02:24:42.117Z,102020.91
2023-03-16T02:26:48.295Z,102014.81
2023-03-16T02:29:14.181Z,102015.50
2023-03-16T02:31:17.230Z,102012.81
2023-03-16T02:33:21.264Z,102017.00
2023-03-16T02:35:22.999Z,102012.59
2023-03-16T02:37:24.561Z,102009.88
2023-03-16T02:39:26.190Z,102016.72
2023-03-16T02:41:27.688Z,102020.13
2023-03-16T02:43:34.892Z,102014.06
2023-03-16T02:45:53.548Z,102014.81
2023-03-16T02:47:54.995Z,102012.94
2023-03-16T02:49:56.494Z,102015.41
2023-03-16T02:51:57.976Z,102005.00
2023-03-16T02:53:59.503Z,102009.28
2023-03-16T02:56:03.024Z,102001.53
2023-03-16T02:58:04.790Z,101996.28
2023-03-16T03:00:14.546Z,101998.94
2023-03-16T03:02:16.241Z,102000.63
2023-03-16T03:04:17.894Z,102003.22
2023-03-16T03:06:19.428Z,102013.53
2023-03-16T03:08:22.418Z,102013.53
2023-03-16T03:10:24.390Z,102012.66
2023-03-16T03:12:25.878Z,102016.94
2023-03-16T03:14:28.549Z,102008.34
2023-03-16T03:16:31.473Z,102012.59
2023-03-16T03:18:34.639Z,102015.16
2023-03-16T03:20:36.204Z,102007.41
2023-03-16T03:22:37.661Z,101998.69
2023-03-16T03:24:39.119Z,101999.50
2023-03-16T03:26:40.650Z,101998.63
2023-03-16T03:28:43.289Z,101997.81
2023-03-16T03:30:45.028Z,101999.50
2023-03-16T03:32:46.744Z,102003.81
2023-03-16T03:34:48.552Z,102000.34
2023-03-16T03:36:49.990Z,101989.91
2023-03-16T03:38:51.441Z,102001.16
2023-03-16T03:40:53.857Z,101996.81
2023-03-16T03:42:55.351Z,101991.56
2023-03-16T03:44:56.877Z,101994.97
2023-03-16T03:46:58.445Z,101987.16
2023-03-16T03:49:03.733Z,101995.75
2023-03-16T03:51:06.700Z,101993.97
2023-03-16T03:53:08.252Z,101994.78
2023-03-16T03:55:10.723Z,101999.91
2023-03-16T03:57:12.285Z,102001.63
2023-03-16T03:59:13.793Z,101996.44
2023-03-16T04:01:15.275Z,101998.22
2023-03-16T04:03:17.615Z,101996.50
2023-03-16T04:05:19.195Z,102003.50
2023-03-16T04:07:20.873Z,102004.38
2023-03-16T04:09:22.345Z,102007.94
2023-03-16T04:11:23.818Z,102008.94
2023-03-16T04:13:25.380Z,102013.34
2023-03-16T04:15:27.277Z,102003.09
2023-03-16T04:17:28.729Z,102002.41
2023-03-16T04:19:30.438Z,102005.06
2023-03-16T04:21:32.189Z,101998.34
2023-03-16T04:23:34.767Z,102002.81
2023-03-16T04:25:38.568Z,101996.88
2023-03-16T04:27:40.564Z,101990.03
2023-03-16T04:29:42.456Z,101989.34
2023-03-16T04:31:44.814Z,101983.41
2023-03-16T04:33:46.391Z,101983.53
2023-03-16T04:35:48.527Z,101985.41
2023-03-16T04:37:50.054Z,101976.06
2023-03-16T04:39:51.565Z,101975.28
2023-03-16T04:41:52.995Z,101971.91
2023-03-16T04:43:54.433Z,101971.16
2023-03-16T04:45:55.948Z,101973.78
2023-03-16T04:47:57.407Z,101973.03
2023-03-16T04:49:58.854Z,101962.78
2023-03-16T04:52:00.964Z,101961.13
2023-03-16T04:54:02.455Z,101950.81
2023-03-16T04:56:04.182Z,101946.56
2023-03-16T04:58:05.708Z,101954.44
2023-03-16T05:00:19.827Z,101950.19
2023-03-16T05:02:21.373Z,101954.63
2023-03-16T05:04:24.596Z,101958.13
2023-03-16T05:06:26.062Z,101953.09
2023-03-16T05:08:27.537Z,101947.97
2023-03-16T05:10:29.382Z,101945.44
2023-03-16T05:12:31.081Z,101941.19
2023-03-16T05:14:32.622Z,101937.81
2023-03-16T05:16:34.082Z,101933.50
2023-03-16T05:18:35.554Z,101931.03
2023-03-16T05:20:37.515Z,101931.06
2023-03-16T05:22:43.866Z,101937.25
2023-03-16T05:24:45.350Z,101935.59
2023-03-16T05:26:46.804Z,101939.13
2023-03-16T05:28:48.237Z,101940.06
2023-03-16T05:30:49.739Z,101934.09
2023-03-16T05:32:51.511Z,101943.75
2023-03-16T05:34:55.879Z,101942.09
2023-03-16T05:36:57.388Z,101939.59
2023-03-16T05:38:59.415Z,101933.63
2023-03-16T05:41:04.561Z,101938.03
2023-03-16T05:43:07.144Z,101939.06
2023-03-16T05:45:09.303Z,101940.00
2023-03-16T05:47:10.911Z,101943.56
2023-03-16T05:49:13.059Z,101943.66
2023-03-16T05:51:14.534Z,101935.16
2023-03-16T05:53:16.015Z,101936.13
2023-03-16T05:55:18.711Z,101931.06
2023-03-16T05:57:20.237Z,101935.47
2023-03-16T05:59:21.724Z,101932.91
2023-03-16T06:01:24.259Z,101936.50
2023-03-16T06:03:26.010Z,101930.50
2023-03-16T06:05:28.612Z,101936.63
2023-03-16T06:07:30.109Z,101928.91
2023-03-16T06:09:31.563Z,101930.72
2023-03-16T06:11:33.111Z,101923.03
2023-03-16T06:13:34.918Z,101922.25
2023-03-16T06:15:36.438Z,101929.19
2023-03-16T06:17:39.701Z,101930.19
2023-03-16T06:19:41.163Z,101928.53
2023-03-16T06:21:42.901Z,101935.53
2023-03-16T06:23:44.848Z,101932.16
2023-03-16T06:25:49.837Z,101937.44
2023-03-16T06:27:51.349Z,101947.94
2023-03-16T06:29:53.141Z,101947.16
2023-03-16T06:31:54.874Z,101958.56
2023-03-16T06:33:56.404Z,101953.50
2023-03-16T06:35:57.940Z,101955.38
2023-03-16T06:37:59.767Z,101960.78
2023-03-16T06:40:01.717Z,101959.25
2023-03-16T06:42:04.687Z,101957.72
2023-03-16T06:44:06.198Z,101965.69
2023-03-16T06:46:07.865Z,101969.31
2023-03-16T06:48:09.927Z,101965.13
2023-03-16T06:50:12.004Z,101972.19
2023-03-16T06:52:14.196Z,101963.66
2023-03-16T06:54:15.743Z,101961.19
2023-03-16T06:56:17.251Z,101963.03
2023-03-16T06:58:18.926Z,101964.91
2023-03-16T07:00:21.609Z,101960.69
2023-03-16T07:02:23.679Z,101965.13
2023-03-16T07:04:25.410Z,101958.31
2023-03-16T07:06:27.055Z,101964.56
2023-03-16T07:08:29.167Z,101963.84
2023-03-16T07:10:31.614Z,101964.00
2023-03-16T07:12:33.103Z,101963.31
2023-03-16T07:14:34.554Z,101962.59
2023-03-16T07:16:36.087Z,101963.66
2023-03-16T07:18:40.476Z,101961.22
2023-03-16T07:20:42.221Z,101966.63
2023-03-16T07:22:43.927Z,101972.03
2023-03-16T07:24:45.383Z,101967.03
2023-03-16T07:26:46.838Z,101971.53
2023-03-16T07:28:48.316Z,101968.25
2023-03-16T07:31:02.843Z,101972.78
2023-03-16T07:33:05.464Z,101967.72
2023-03-16T07:35:11.761Z,101972.25
2023-03-16T07:37:14.233Z,101968.13
2023-03-16T07:39:17.690Z,101968.28
2023-03-16T07:41:19.388Z,101965.88
2023-03-16T07:43:20.850Z,101968.69
2023-03-16T07:45:22.401Z,101974.94
2023-03-16T07:47:26.555Z,101980.34
2023-03-16T07:49:28.239Z,101969.22
2023-03-16T07:51:29.694Z,101984.13
2023-03-16T07:53:32.097Z,101976.53
2023-03-16T07:55:36.445Z,101976.72
2023-03-16T07:57:39.276Z,101975.16
2023-03-16T07:59:41.598Z,101970.09
2023-03-16T08:01:43.236Z,101964.19
2023-03-16T08:03:44.876Z,101965.22
2023-03-16T08:05:46.392Z,101959.25
2023-03-16T08:07:47.972Z,101961.19
2023-03-16T08:09:49.432Z,101965.75
2023-03-16T08:11:51.009Z,101968.53
2023-03-16T08:13:54.487Z,101963.47
2023-03-16T08:15:58.862Z,101956.63
2023-03-16T08:18:04.699Z,101965.47
2023-03-16T08:20:10.809Z,101972.56
2023-03-16T08:22:12.558Z,101975.25
2023-03-16T08:24:14.086Z,101971.88
2023-03-16T08:26:19.635Z,101973.78
2023-03-16T08:28:21.735Z,101978.25
2023-03-16T08:30:23.289Z,101973.97
2023-03-16T08:32:24.804Z,101969.75
2023-03-16T08:34:27.742Z,101968.97
2023-03-16T08:36:30.248Z,101969.13
2023-03-16T08:38:32.235Z,101966.63
2023-03-16T08:40:34.897Z,101965.06
2023-03-16T08:42:38.809Z,101959.94
2023-03-16T08:44:40.268Z,101964.41
2023-03-16T08:46:42.436Z,101962.78
2023-03-16T08:48:44.055Z,101958.56
2023-03-16T08:50:46.252Z,101958.69
2023-03-16T08:52:49.073Z,101956.16
2023-03-16T08:55:02.485Z,101958.00
2023-03-16T08:57:05.002Z,101949.38
2023-03-16T08:59:07.789Z,101949.47
2023-03-16T09:01:12.588Z,101948.75
2023-03-16T09:03:14.075Z,101947.97
2023-03-16T09:05:16.086Z,101945.38
2023-03-16T09:07:18.724Z,101946.28
2023-03-16T09:09:20.229Z,101947.19
2023-03-16T09:11:22.294Z,101943.72
2023-03-16T09:13:24.535Z,101942.91
2023-03-16T09:15:26.784Z,101940.34
2023-03-16T09:17:28.609Z,101946.56
2023-03-16T09:19:47.844Z,101946.59
2023-03-16T09:21:51.887Z,101937.06
2023-03-16T09:23:54.814Z,101938.03
2023-03-16T09:26:01.912Z,101936.41
2023-03-16T09:28:03.500Z,101933.03
2023-03-16T09:30:07.475Z,101933.09
2023-03-16T09:32:09.899Z,101933.13
2023-03-16T09:34:11.861Z,101941.03
2023-03-16T09:36:14.607Z,101936.72
2023-03-16T09:38:17.857Z,101932.41
2023-03-16T09:40:30.562Z,101928.09
2023-03-16T09:42:45.243Z,101931.59
2023-03-16T09:44:58.406Z,101937.72
2023-03-16T09:47:03.565Z,101933.38
2023-03-16T09:49:05.282Z,101936.88
2023-03-16T09:51:14.506Z,101927.25
2023-03-16T09:53:36.601Z,101931.63
2023-03-16T09:55:39.340Z,101930.81
2023-03-16T09:57:44.607Z,101930.00
2023-03-16T09:59:46.121Z,101936.16
2023-03-16T10:01:59.722Z,101925.69
2023-03-16T10:04:13.258Z,101920.44
2023-03-16T10:06:16.176Z,101928.31
2023-03-16T10:08:28.627Z,101926.56
2023-03-16T10:10:45.099Z,101922.19
2023-03-16T10:12:51.482Z,101919.56
2023-03-16T10:14:58.190Z,101916.94
2023-03-16T10:17:03.158Z,101918.72
2023-03-16T10:19:18.621Z,101917.84
2023-03-16T10:21:21.290Z,101917.00
2023-03-16T10:23:26.675Z,101910.88
2023-03-16T10:25:43.012Z,101906.50
2023-03-16T10:27:46.038Z,101909.16
2023-03-16T10:29:47.737Z,101910.03
2023-03-16T10:31:49.319Z,101903.94
2023-03-16T10:33:55.698Z,101896.94
2023-03-16T10:36:05.595Z,101910.09
2023-03-16T10:38:47.042Z,101896.97
2023-03-16T10:40:52.760Z,101886.44
2023-03-16T10:42:54.273Z,101888.19
2023-03-16T10:45:01.904Z,101888.19
2023-03-16T10:47:05.843Z,101884.69
2023-03-16T10:49:20.107Z,101893.44
2023-03-16T10:51:26.097Z,101895.22
2023-03-16T10:53:32.931Z,101898.72
2023-03-16T10:55:43.632Z,101896.94
2023-03-16T10:57:55.722Z,101890.81
2023-03-16T11:00:20.849Z,101885.53
2023-03-16T11:02:30.507Z,101886.44
2023-03-16T11:04:33.347Z,101889.00
2023-03-16T11:06:34.859Z,101889.84
2023-03-16T11:08:41.388Z,101887.22
2023-03-16T11:10:55.461Z,101873.19
2023-03-16T11:13:14.775Z,101878.38
2023-03-16T11:15:25.895Z,101870.47
2023-03-16T11:17:38.315Z,101872.13
2023-03-16T11:19:51.420Z,101865.97
2023-03-16T11:22:03.987Z,101866.84
2023-03-16T11:24:14.762Z,101865.03
2023-03-16T11:26:27.742Z,101873.84
2023-03-16T11:28:36.592Z,101868.56
2023-03-16T11:30:51.810Z,101858.78
2023-03-16T11:32:54.061Z,101857.72
2023-03-16T11:34:55.664Z,101850.31
2023-03-16T11:37:05.856Z,101840.06
2023-03-16T11:39:31.150Z,101833.28
2023-03-16T11:41:39.220Z,101831.31
2023-03-16T11:43:40.671Z,101832.75
2023-03-16T11:45:51.827Z,101826.91
2023-03-16T11:48:31.037Z,101823.66
2023-03-16T11:50:58.596Z,101822.34
2023-03-16T11:53:25.741Z,101816.94
2023-03-16T11:55:37.898Z,101815.88
2023-03-16T11:57:51.816Z,101816.44
2023-03-16T12:00:31.656Z,101815.94
2023-03-16T12:03:08.767Z,101803.19
2023-03-16T12:05:34.576Z,101804.81
2023-03-16T12:07:45.057Z,101799.56
2023-03-16T12:10:06.164Z,101802.19
2023-03-16T12:12:29.917Z,101804.97
2023-03-16T12:15:14.513Z,101800.44
2023-03-16T12:17:27.241Z,101799.25
2023-03-16T12:19:53.640Z,101804.94
2023-03-16T12:22:07.741Z,101798.38
2023-03-16T12:24:22.116Z,101795.91
2023-03-16T12:26:30.077Z,101772.50
2023-03-16T12:28:33.423Z,101787.34
2023-03-16T12:31:01.844Z,101785.81
2023-03-16T12:33:35.001Z,101784.41
2023-03-16T12:35:48.359Z,101771.84
2023-03-16T12:38:20.545Z,101775.75
2023-03-16T12:40:28.272Z,101772.41
2023-03-16T12:42:42.767Z,101773.44
2023-03-16T12:45:07.332Z,101774.22
2023-03-16T12:47:13.079Z,101760.88
2023-03-16T12:49:15.015Z,101763.50
2023-03-16T12:51:17.332Z,101758.06
2023-03-16T12:53:40.745Z,101757.31
2023-03-16T12:55:45.188Z,101749.63
2023-03-16T12:57:49.842Z,101758.41
2023-03-16T12:59:58.324Z,101739.88
2023-03-16T13:02:00.913Z,101744.34
2023-03-16T13:04:10.737Z,101737.31
2023-03-16T13:06:24.124Z,101742.53
2023-03-16T13:08:25.909Z,101742.66
2023-03-16T13:10:28.709Z,101735.72
2023-03-16T13:12:37.038Z,101739.31
2023-03-16T13:14:44.232Z,101738.44
2023-03-16T13:16:47.784Z,101734.06
2023-03-16T13:18:49.613Z,101736.78
2023-03-16T13:20:57.901Z,101732.50
2023-03-16T13:23:18.338Z,101730.72
2023-03-16T13:25:22.744Z,101724.44
2023-03-16T13:27:30.716Z,101730.59
2023-03-16T13:29:32.995Z,101730.56
2023-03-16T13:31:41.743Z,101735.84
2023-03-16T13:33:43.221Z,101727.22
2023-03-16T13:35:46.287Z,101729.03
2023-03-16T13:37:49.281Z,101721.19
2023-03-16T13:39:59.718Z,101720.31
2023-03-16T13:42:16.896Z,101713.44
2023-03-16T13:44:18.808Z,101706.38
2023-03-16T13:46:29.631Z,101702.88
2023-03-16T13:48:37.550Z,101698.53
2023-03-16T13:50:41.334Z,101698.47
2023-03-16T13:52:57.484Z,101699.25
2023-03-16T13:55:01.916Z,101693.03
2023-03-16T13:57:07.191Z,101685.97
2023-03-16T13:59:10.610Z,101689.50
2023-03-16T14:01:32.769Z,101681.53
2023-03-16T14:03:37.010Z,101675.25
2023-03-16T14:05:39.309Z,101676.19
2023-03-16T14:07:40.770Z,101660.47
2023-03-16T14:09:42.378Z,101664.84
2023-03-16T14:11:44.704Z,101656.94
2023-03-16T14:13:53.576Z,101661.34
2023-03-16T14:16:17.628Z,101644.78
2023-03-16T14:18:23.233Z,101647.47
2023-03-16T14:20:26.007Z,101639.56
2023-03-16T14:22:37.170Z,101638.69
2023-03-16T14:24:40.567Z,101633.44
2023-03-16T14:26:47.330Z,101642.28
2023-03-16T14:29:05.133Z,101637.88
2023-03-16T14:31:11.133Z,101628.16
2023-03-16T14:33:42.713Z,101614.19
2023-03-16T14:35:44.821Z,101624.84
2023-03-16T14:37:46.645Z,101622.31
2023-03-16T14:40:01.659Z,101616.16
2023-03-16T14:42:06.788Z,101612.63
2023-03-16T14:44:21.107Z,101601.88
2023-03-16T14:46:43.104Z,101591.09
2023-03-16T14:48:45.752Z,101583.94
2023-03-16T14:50:57.505Z,101588.09
2023-03-16T14:52:59.870Z,101593.28
2023-03-16T14:55:05.610Z,101579.94
2023-03-16T14:57:07.206Z,101573.63
2023-03-16T14:59:09.791Z,101560.41
2023-03-16T15:01:17.992Z,101548.91
2023-03-16T15:03:23.956Z,101554.34
2023-03-16T15:05:32.884Z,101554.44
2023-03-16T15:07:41.259Z,101553.72
2023-03-16T15:09:43.774Z,101553.84
2023-03-16T15:11:45.254Z,101544.16
2023-03-16T15:13:48.066Z,101539.69
2023-03-16T15:15:49.602Z,101543.31
2023-03-16T15:17:52.574Z,101540.72
2023-03-16T15:19:54.514Z,101543.47
2023-03-16T15:22:04.107Z,101542.66
2023-03-16T15:24:05.844Z,101533.97
2023-03-16T15:26:13.862Z,101529.72
2023-03-16T15:28:17.617Z,101534.19
2023-03-16T15:30:22.428Z,101531.59
2023-03-16T15:32:24.091Z,101532.53
2023-03-16T15:34:27.347Z,101522.88
2023-03-16T15:36:28.830Z,101526.41
2023-03-16T15:38:33.466Z,101524.59
2023-03-16T15:40:35.780Z,101528.00
2023-03-16T15:42:37.221Z,101516.63
2023-03-16T15:44:38.674Z,101519.28
2023-03-16T15:46:40.193Z,101517.53
2023-03-16T15:48:42.493Z,101514.91
2023-03-16T15:50:55.118Z,101515.81
2023-03-16T15:53:00.972Z,101503.63
2023-03-16T15:55:07.708Z,101503.63
2023-03-16T15:57:10.775Z,101494.88
2023-03-16T15:59:18.501Z,101500.16
2023-03-16T16:01:27.925Z,101493.13
2023-03-16T16:03:29.614Z,101506.31
2023-03-16T16:05:31.617Z,101511.59
2023-03-16T16:07:33.124Z,101504.69
2023-03-16T16:09:37.738Z,101500.34
2023-03-16T16:11:41.249Z,101502.13
2023-03-16T16:13:45.168Z,101490.75
2023-03-16T16:15:47.185Z,101482.03
2023-03-16T16:18:09.989Z,101486.41
2023-03-16T16:20:18.755Z,101490.00
2023-03-16T16:22:20.368Z,101503.25
2023-03-16T16:24:22.553Z,101488.34
2023-03-16T16:26:34.316Z,101490.13
2023-03-16T16:28:43.355Z,101480.50
2023-03-16T16:30:45.471Z,101484.91
2023-03-16T16:32:47.691Z,101480.50
2023-03-16T16:35:03.436Z,101473.47
2023-03-16T16:37:05.941Z,101475.31
2023-03-16T16:39:08.074Z,101468.34
2023-03-16T16:41:14.759Z,101469.22
2023-03-16T16:43:39.067Z,101451.66
2023-03-16T16:45:40.566Z,101448.22
2023-03-16T16:47:42.151Z,101452.59
2023-03-16T16:49:43.621Z,101448.25
2023-03-16T16:51:45.807Z,101454.44
2023-03-16T16:53:47.961Z,101463.25
2023-03-16T16:55:49.567Z,101465.91
2023-03-16T16:57:54.439Z,101458.06
2023-03-16T16:59:56.894Z,101457.19
2023-03-16T17:02:00.252Z,101460.72
2023-03-16T17:04:02.591Z,101462.47
2023-03-16T17:06:04.391Z,101458.06
2023-03-16T17:08:06.467Z,101460.72
2023-03-16T17:10:09.766Z,101461.63
2023-03-16T17:12:18.008Z,101448.47
2023-03-16T17:14:21.401Z,101447.63
2023-03-16T17:16:23.288Z,101450.25
2023-03-16T17:18:25.061Z,101439.81
2023-03-16T17:20:27.281Z,101449.50
2023-03-16T17:22:30.290Z,101450.44
2023-03-16T17:24:31.980Z,101440.84
2023-03-16T17:26:40.214Z,101444.41
2023-03-16T17:28:56.992Z,101443.56
2023-03-16T17:30:58.527Z,101441.81
2023-03-16T17:33:12.389Z,101438.34
2023-03-16T17:35:15.711Z,101434.03
2023-03-16T17:37:19.840Z,101434.97
2023-03-16T17:39:27.072Z,101429.75
2023-03-16T17:41:32.963Z,101425.44
2023-03-16T17:43:34.808Z,101425.47
2023-03-16T17:45:36.566Z,101423.75
2023-03-16T17:47:39.559Z,101430.78
2023-03-16T17:49:41.223Z,101428.19
2023-03-16T17:51:44.005Z,101432.56
2023-03-16T17:53:45.512Z,101428.22
2023-03-16T17:55:47.245Z,101431.78
2023-03-16T17:57:50.704Z,101423.91
2023-03-16T17:59:52.243Z,101426.53
2023-03-16T18:01:53.821Z,101430.94
2023-03-16T18:03:56.617Z,101425.72
2023-03-16T18:05:58.132Z,101424.88
2023-03-16T18:08:14.280Z,101421.41
2023-03-16T18:10:24.920Z,101430.19
2023-03-16T18:12:27.207Z,101424.97
2023-03-16T18:14:35.522Z,101428.44
2023-03-16T18:16:37.110Z,101423.22
2023-03-16T18:18:40.147Z,101417.13
2023-03-16T18:20:41.607Z,101421.50
2023-03-16T18:22:43.925Z,101419.78
2023-03-16T18:24:46.463Z,101425.03
2023-03-16T18:26:48.008Z,101426.81
2023-03-16T18:28:50.494Z,101424.22
2023-03-16T18:30:52.786Z,101423.38
2023-03-16T18:32:55.430Z,101432.13
2023-03-16T18:34:58.033Z,101429.50
2023-03-16T18:37:04.131Z,101428.63
2023-03-16T18:39:18.906Z,101424.28
2023-03-16T18:41:23.324Z,101424.28
2023-03-16T18:43:27.184Z,101425.16
2023-03-16T18:45:29.838Z,101425.16
2023-03-16T18:47:32.607Z,101425.19
2023-03-16T18:49:36.682Z,101426.06
2023-03-16T18:51:38.319Z,101422.59
2023-03-16T18:53:39.771Z,101425.22
2023-03-16T18:55:44.959Z,101427.84
2023-03-16T18:57:50.409Z,101428.72
2023-03-16T18:59:52.506Z,101422.63
2023-03-16T19:01:54.310Z,101426.13
2023-03-16T19:03:57.255Z,101429.63
2023-03-16T19:06:00.907Z,101433.13
2023-03-16T19:08:05.021Z,101429.63
2023-03-16T19:10:20.580Z,101420.88
2023-03-16T19:12:23.035Z,101419.13
2023-03-16T19:14:28.249Z,101418.28
2023-03-16T19:16:29.946Z,101421.78
2023-03-16T19:18:31.558Z,101419.16
2023-03-16T19:20:34.911Z,101413.06
2023-03-16T19:22:36.558Z,101408.69
2023-03-16T19:24:47.233Z,101403.44
2023-03-16T19:26:48.870Z,101401.69
2023-03-16T19:28:51.027Z,101399.06
2023-03-16T19:30:52.487Z,101390.34
2023-03-16T19:32:55.111Z,101390.34
2023-03-16T19:34:56.891Z,101393.84
2023-03-16T19:36:58.349Z,101395.59
2023-03-16T19:39:00.176Z,101391.22
2023-03-16T19:41:01.639Z,101388.59
2023-03-16T19:43:03.153Z,101385.09
2023-03-16T19:45:05.423Z,101384.22
2023-03-16T19:47:33.779Z,101368.50
2023-03-16T19:49:35.355Z,101373.75
2023-03-16T19:51:36.820Z,101367.63
2023-03-16T19:53:38.347Z,101363.28
2023-03-16T19:55:39.866Z,101367.63
2023-03-16T19:57:42.507Z,101362.41
2023-03-16T19:59:47.718Z,101369.38
2023-03-16T20:01:49.254Z,101358.91
2023-03-16T20:03:53.815Z,101360.66
2023-03-16T20:05:55.280Z,101359.78
2023-03-16T20:07:58.506Z,101353.66
2023-03-16T20:10:00.147Z,101351.91
2023-03-16T20:12:01.936Z,101355.41
2023-03-16T20:14:04.643Z,101351.03
2023-03-16T20:16:06.737Z,101347.53
2023-03-16T20:18:16.344Z,101348.41
2023-03-16T20:20:24.308Z,101344.03
2023-03-16T20:22:28.445Z,101342.31
2023-03-16T20:24:29.937Z,101337.94
2023-03-16T20:26:32.807Z,101343.19
2023-03-16T20:28:36.564Z,101344.94
2023-03-16T20:30:39.180Z,101329.19
2023-03-16T20:32:42.904Z,101332.69
2023-03-16T20:34:44.973Z,101330.94
2023-03-16T20:36:46.516Z,101334.41
2023-03-16T20:38:48.440Z,101338.81
2023-03-16T20:40:52.617Z,101336.19
2023-03-16T20:42:54.116Z,101333.53
2023-03-16T20:44:56.322Z,101335.31
2023-03-16T20:46:57.840Z,101325.69
2023-03-16T20:49:03.485Z,101328.31
2023-03-16T20:51:05.121Z,101320.47
2023-03-16T20:53:07.111Z,101316.09
2023-03-16T20:55:13.039Z,101314.31
2023-03-16T20:57:26.127Z,101302.97
2023-03-16T20:59:30.001Z,101296.84
2023-03-16T21:01:32.141Z,101293.34
2023-03-16T21:03:33.703Z,101289.00
2023-03-16T21:05:35.655Z,101289.00
2023-03-16T21:07:37.122Z,101288.13
2023-03-16T21:09:38.601Z,101295.13
2023-03-16T21:11:43.423Z,101286.38
2023-03-16T21:13:44.903Z,101284.63
2023-03-16T21:15:49.721Z,101284.63
2023-03-16T21:17:57.391Z,101277.66
2023-03-16T21:20:00.260Z,101284.66
2023-03-16T21:22:02.218Z,101279.41
2023-03-16T21:24:03.849Z,101273.28
2023-03-16T21:26:05.663Z,101268.94
2023-03-16T21:28:07.310Z,101259.31
2023-03-16T21:30:37.199Z,101248.81
2023-03-16T21:32:38.801Z,101250.59
2023-03-16T21:34:40.324Z,101242.72
2023-03-16T21:36:44.286Z,101241.88
2023-03-16T21:38:47.100Z,101237.50
2023-03-16T21:40:49.071Z,101234.91
2023-03-16T21:42:50.594Z,101237.50
2023-03-16T21:44:52.390Z,101228.75
2023-03-16T21:46:53.983Z,101224.41
2023-03-16T21:48:55.797Z,101225.28
2023-03-16T21:50:57.395Z,101230.53
2023-03-16T21:52:59.486Z,101234.03
2023-03-16T21:55:01.082Z,101228.78
2023-03-16T21:57:11.762Z,101227.06
2023-03-16T21:59:13.645Z,101221.81
2023-03-16T22:01:25.256Z,101228.81
2023-03-16T22:03:44.200Z,101221.81
2023-03-16T22:05:52.915Z,101224.44
2023-03-16T22:07:54.411Z,101227.06
2023-03-16T22:09:56.685Z,101225.31
2023-03-16T22:11:58.227Z,101226.19
2023-03-16T22:13:59.821Z,101222.72
2023-03-16T22:16:02.266Z,101226.19
2023-03-16T22:18:15.271Z,101227.94
2023-03-16T22:20:21.723Z,101220.97
2023-03-16T22:22:23.205Z,101219.22
2023-03-16T22:24:27.938Z,101220.09
2023-03-16T22:26:29.551Z,101212.25
2023-03-16T22:28:31.678Z,101211.38
2023-03-16T22:30:33.203Z,101205.25
2023-03-16T22:32:34.710Z,101206.13
2023-03-16T22:34:44.135Z,101217.47
2023-03-16T22:36:45.616Z,101220.09
2023-03-16T22:38:57.965Z,101216.59
2023-03-16T22:40:59.678Z,101213.09
2023-03-16T22:43:04.753Z,101213.97
2023-03-16T22:45:21.396Z,101212.22
2023-03-16T22:47:26.411Z,101210.50
2023-03-16T22:49:28.345Z,101212.25
2023-03-16T22:51:33.815Z,101209.63
2023-03-16T22:53:42.344Z,101200.03
2023-03-16T22:55:44.746Z,101191.31
2023-03-16T22:57:47.120Z,101194.75
2023-03-16T22:59:50.382Z,101200.00
2023-03-16T23:01:52.109Z,101196.50
2023-03-16T23:03:53.749Z,101190.41
2023-03-16T23:05:55.743Z,101189.53
2023-03-16T23:08:00.937Z,101175.56
2023-03-16T23:10:02.419Z,101172.97
2023-03-16T23:12:05.698Z,101175.56
2023-03-16T23:14:16.898Z,101178.19
2023-03-16T23:16:24.522Z,101183.44
2023-03-16T23:18:26.851Z,101181.69
2023-03-16T23:20:31.748Z,101183.44
2023-03-16T23:22:33.372Z,101180.81
2023-03-16T23:24:36.072Z,101172.97
2023-03-16T23:26:38.110Z,101179.06
2023-03-16T23:28:39.749Z,101186.03
2023-03-16T23:30:41.758Z,101184.31
2023-03-16T23:32:44.333Z,101171.22
2023-03-16T23:34:45.980Z,101173.84
2023-03-16T23:36:47.551Z,101167.72
2023-03-16T23:38:50.126Z,101168.59
2023-03-16T23:40:51.603Z,101174.72
2023-03-16T23:42:54.584Z,101166.88
2023-03-16T23:44:56.321Z,101169.47
2023-03-16T23:46:59.827Z,101175.59